Portola, California
Current Conditions -  °F | °C
As of 1:15 PM on Monday 22 Dec 2014 (Local Time) from KRTS Reporting Station
Few Clouds Few Clouds  
Wind Chill: 54°   Ceiling: Unl
Heat Index: 54°   Visibility: 10mi
Dew Point: 37°   Wind: 22mph
Humidity: 54%   Direction: 350°N
Pressure: 30.3"   Gusts: 28mph
Location:  39.81°N, 120.47°W
Report Text: KRTS 222115Z AUTO 35019G24KT 10SM FEW043 12/03 A3030 RMK AO2
Loading
Personal Weather Stations






























Interactive Weather Map New forecast layout! Learn more

10-Day Weather Forecast

Advertisements
Track Severe Weather on mobile